createdAt,value
2022-09-23T00:01:01.146Z,90.87
2022-09-23T00:03:29.532Z,90.88
2022-09-23T00:05:59.648Z,90.57
2022-09-23T00:08:26.259Z,90.29
2022-09-23T00:10:54.314Z,90.73
2022-09-23T00:13:20.773Z,90.24
2022-09-23T00:15:47.277Z,90.54
2022-09-23T00:18:13.752Z,90.28
2022-09-23T00:20:40.236Z,90.39
2022-09-23T00:23:06.718Z,90.68
2022-09-23T00:25:33.779Z,91.41
2022-09-23T00:28:02.014Z,91.13
2022-09-23T00:30:29.076Z,90.57
2022-09-23T00:32:55.588Z,90.13
2022-09-23T00:35:22.301Z,90.83
2022-09-23T00:37:48.838Z,91.44
2022-09-23T00:40:15.491Z,91.29
2022-09-23T00:42:46.659Z,90.85
2022-09-23T00:45:15.224Z,90.41
2022-09-23T00:47:45.790Z,90.29
2022-09-23T00:50:18.393Z,90.43
2022-09-23T00:52:45.429Z,90.78
2022-09-23T00:55:16.232Z,91.02
2022-09-23T00:57:45.463Z,91.61
2022-09-23T01:00:14.211Z,91.78
2022-09-23T01:02:40.775Z,90.83
2022-09-23T01:05:08.851Z,90.64
2022-09-23T01:07:35.333Z,90.67
2022-09-23T01:10:02.547Z,90.69
2022-09-23T01:12:54.044Z,90.97
2022-09-23T01:15:26.541Z,91.13
2022-09-23T01:18:03.231Z,91.25
2022-09-23T01:20:47.232Z,91.23
2022-09-23T01:23:31.216Z,91.08
2022-09-23T01:26:13.593Z,90.61
2022-09-23T01:28:59.949Z,90.64
2022-09-23T01:31:34.734Z,90.53
2022-09-23T01:34:09.714Z,90.51
2022-09-23T01:36:42.542Z,90.67
2022-09-23T01:39:14.710Z,90.93
2022-09-23T01:41:50.269Z,91.08
2022-09-23T01:44:21.659Z,90.83
2022-09-23T01:46:53.798Z,91.12
2022-09-23T01:49:25.230Z,90.84
2022-09-23T01:51:57.994Z,90.54
2022-09-23T01:54:29.591Z,90.42
2022-09-23T01:57:01.680Z,90.42
2022-09-23T01:59:34.722Z,90.46
2022-09-23T02:02:06.200Z,90.67
2022-09-23T02:04:37.852Z,91.24
2022-09-23T02:07:10.866Z,91.17
2022-09-23T02:09:42.589Z,90.66
2022-09-23T02:12:13.909Z,90.49
2022-09-23T02:14:45.808Z,90.86
2022-09-23T02:17:15.669Z,90.86
2022-09-23T02:19:46.484Z,90.39
2022-09-23T02:22:18.228Z,91.64
2022-09-23T02:24:45.038Z,91.86
2022-09-23T02:27:19.995Z,91.53
2022-09-23T02:29:54.032Z,91.29
2022-09-23T02:32:28.711Z,90.46
2022-09-23T02:35:01.394Z,90.95
2022-09-23T02:37:34.284Z,91.90
2022-09-23T02:40:11.940Z,92.21
2022-09-23T02:42:47.071Z,92.44
2022-09-23T02:45:13.830Z,92.34
2022-09-23T02:47:46.620Z,91.62
2022-09-23T02:50:13.251Z,91.07
2022-09-23T02:52:39.792Z,91.11
2022-09-23T02:55:08.949Z,91.14
2022-09-23T02:57:35.542Z,91.07
2022-09-23T03:00:02.339Z,90.29
2022-09-23T03:02:52.346Z,90.42
2022-09-23T03:05:24.532Z,90.41
2022-09-23T03:08:05.539Z,90.09
2022-09-23T03:10:40.488Z,90.22
2022-09-23T03:13:16.787Z,90.56
2022-09-23T03:15:50.598Z,90.61
2022-09-23T03:18:23.502Z,91.46
2022-09-23T03:20:53.403Z,92.05
2022-09-23T03:23:26.250Z,92.07
2022-09-23T03:25:55.774Z,92.48
2022-09-23T03:28:24.671Z,92.58
2022-09-23T03:30:52.890Z,92.69
2022-09-23T03:33:28.537Z,92.54
2022-09-23T03:35:59.617Z,92.04
2022-09-23T03:38:31.174Z,92.22
2022-09-23T03:40:59.486Z,91.98
2022-09-23T03:43:26.107Z,91.57
2022-09-23T03:45:54.097Z,90.64
2022-09-23T03:48:22.010Z,90.81
2022-09-23T03:50:48.497Z,89.76
2022-09-23T03:53:15.058Z,91.03
2022-09-23T03:55:41.561Z,91.89
2022-09-23T03:58:08.043Z,92.29
2022-09-23T04:00:34.583Z,91.76
2022-09-23T04:03:01.153Z,92.13
2022-09-23T04:05:29.009Z,92.24
2022-09-23T04:07:55.485Z,90.51
2022-09-23T04:10:21.997Z,89.73
2022-09-23T04:12:48.493Z,89.38
2022-09-23T04:15:15.074Z,89.53
2022-09-23T04:17:41.544Z,89.85
2022-09-23T04:20:08.925Z,91.64
2022-09-23T04:22:36.743Z,93.01
2022-09-23T04:25:03.498Z,93.15
2022-09-23T04:27:33.108Z,93.44
2022-09-23T04:30:02.077Z,94.32
2022-09-23T04:32:28.549Z,95.20
2022-09-23T04:34:55.028Z,95.76
2022-09-23T04:37:21.500Z,95.24
2022-09-23T04:39:49.327Z,94.86
2022-09-23T04:42:15.819Z,93.17
2022-09-23T04:44:42.369Z,92.55
2022-09-23T04:47:08.902Z,94.63
2022-09-23T04:49:35.432Z,95.20
2022-09-23T04:52:02.158Z,95.69
2022-09-23T04:54:28.820Z,95.08
2022-09-23T04:56:56.841Z,94.25
2022-09-23T04:59:23.350Z,94.56
2022-09-23T05:01:49.863Z,95.12
2022-09-23T05:04:16.362Z,95.20
2022-09-23T05:06:42.854Z,94.58
2022-09-23T05:09:14.726Z,93.52
2022-09-23T05:11:41.033Z,93.05
2022-09-23T05:14:09.029Z,93.56
2022-09-23T05:16:35.760Z,93.79
2022-09-23T05:19:02.278Z,94.01
2022-09-23T05:21:28.919Z,94.59
2022-09-23T05:23:56.618Z,94.22
2022-09-23T05:26:25.082Z,94.43
2022-09-23T05:28:52.381Z,93.92
2022-09-23T05:31:21.889Z,94.05
2022-09-23T05:33:50.760Z,93.29
2022-09-23T05:36:17.681Z,92.13
2022-09-23T05:38:44.236Z,91.40
2022-09-23T05:41:14.230Z,91.50
2022-09-23T05:43:40.964Z,91.25
2022-09-23T05:46:10.820Z,90.55
2022-09-23T05:48:39.962Z,90.50
2022-09-23T05:51:08.741Z,90.38
2022-09-23T05:53:35.239Z,89.97
2022-09-23T05:56:01.948Z,89.52
2022-09-23T05:58:28.498Z,90.11
2022-09-23T06:00:54.968Z,90.27
2022-09-23T06:03:21.496Z,89.84
2022-09-23T06:05:52.717Z,89.79
2022-09-23T06:08:19.205Z,90.10
2022-09-23T06:10:47.879Z,90.36
2022-09-23T06:13:16.223Z,89.31
2022-09-23T06:15:42.742Z,89.10
2022-09-23T06:18:09.296Z,88.49
2022-09-23T06:20:35.792Z,88.19
2022-09-23T06:23:08.338Z,87.23
2022-09-23T06:25:37.777Z,86.87
2022-09-23T06:28:04.476Z,88.21
2022-09-23T06:30:30.963Z,88.92
2022-09-23T06:32:57.954Z,88.14
2022-09-23T06:35:27.713Z,88.50
2022-09-23T06:37:54.609Z,90.16
2022-09-23T06:40:22.817Z,91.31
2022-09-23T06:42:57.251Z,91.66
2022-09-23T06:45:23.888Z,93.94
2022-09-23T06:47:53.664Z,94.17
2022-09-23T06:50:20.142Z,94.26
2022-09-23T06:52:50.826Z,95.09
2022-09-23T06:55:17.331Z,95.23
2022-09-23T06:57:45.128Z,96.13
2022-09-23T07:00:12.954Z,94.92
2022-09-23T07:02:40.471Z,93.58
2022-09-23T07:05:07.729Z,91.68
2022-09-23T07:07:34.210Z,90.38
2022-09-23T07:10:00.667Z,89.68
2022-09-23T07:12:27.111Z,89.65
2022-09-23T07:14:54.924Z,90.13
2022-09-23T07:17:21.384Z,89.58
2022-09-23T07:19:47.844Z,88.33
2022-09-23T07:22:14.334Z,88.84
2022-09-23T07:24:40.804Z,87.52
2022-09-23T07:27:07.275Z,88.98
2022-09-23T07:29:44.371Z,88.51
2022-09-23T07:32:14.623Z,86.62
2022-09-23T07:34:41.250Z,89.25
2022-09-23T07:37:07.787Z,88.61
2022-09-23T07:39:34.726Z,86.90
2022-09-23T07:42:01.181Z,85.56
2022-09-23T07:44:27.653Z,84.37
2022-09-23T07:46:54.114Z,83.33
2022-09-23T07:49:21.940Z,82.34
2022-09-23T07:51:48.420Z,81.39
2022-09-23T07:54:16.386Z,83.13
2022-09-23T07:56:43.828Z,86.25
2022-09-23T07:59:13.242Z,84.96
2022-09-23T08:01:42.210Z,84.40
2022-09-23T08:04:13.052Z,84.40
2022-09-23T08:06:42.278Z,83.86
2022-09-23T08:09:09.051Z,84.60
2022-09-23T08:11:35.749Z,83.96
2022-09-23T08:14:02.297Z,83.38
2022-09-23T08:16:28.871Z,83.48
2022-09-23T08:18:55.388Z,82.58
2022-09-23T08:21:22.874Z,81.26
2022-09-23T08:23:50.705Z,80.08
2022-09-23T08:26:21.512Z,78.69
2022-09-23T08:28:49.297Z,77.34
2022-09-23T08:31:15.858Z,77.76
2022-09-23T08:33:42.400Z,77.99
2022-09-23T08:36:08.876Z,78.15
2022-09-23T08:38:35.366Z,78.69
2022-09-23T08:41:12.544Z,79.16
2022-09-23T08:43:39.039Z,77.84
2022-09-23T08:46:10.167Z,78.71
2022-09-23T08:48:42.253Z,78.70
2022-09-23T08:51:13.852Z,78.37
2022-09-23T08:53:40.396Z,78.12
2022-09-23T08:56:14.184Z,77.10
2022-09-23T08:58:59.740Z,78.73
2022-09-23T09:01:31.964Z,78.59
2022-09-23T09:04:00.698Z,78.15
2022-09-23T09:06:32.500Z,77.69
2022-09-23T09:09:01.242Z,76.58
2022-09-23T09:11:35.953Z,73.57
2022-09-23T09:14:17.561Z,69.52
2022-09-23T09:17:05.937Z,69.99
2022-09-23T09:19:46.002Z,69.38
2022-09-23T09:22:19.186Z,67.88
2022-09-23T09:24:48.696Z,66.03
2022-09-23T09:27:16.527Z,64.11
2022-09-23T09:29:46.044Z,66.00
2022-09-23T09:32:22.335Z,64.94
2022-09-23T09:34:53.567Z,64.47
2022-09-23T09:37:27.498Z,65.36
2022-09-23T09:39:54.000Z,62.93
2022-09-23T09:42:27.116Z,62.96
2022-09-23T09:44:58.473Z,63.06
2022-09-23T09:47:35.708Z,60.38
2022-09-23T09:50:07.462Z,60.79
2022-09-23T09:52:34.522Z,60.08
2022-09-23T09:55:22.969Z,61.67
2022-09-23T09:57:55.689Z,62.05
2022-09-23T10:00:38.620Z,59.06
2022-09-23T10:03:25.382Z,59.46
2022-09-23T10:05:53.410Z,58.08
2022-09-23T10:08:25.923Z,58.56
2022-09-23T10:10:59.801Z,57.64
2022-09-23T10:13:28.360Z,58.58
2022-09-23T10:15:56.095Z,58.63
2022-09-23T10:18:28.902Z,59.58
2022-09-23T10:21:02.330Z,56.46
2022-09-23T10:23:30.122Z,58.25
2022-09-23T10:25:58.373Z,56.47
2022-09-23T10:28:49.591Z,58.40
2022-09-23T10:31:23.463Z,56.35
2022-09-23T10:33:52.983Z,57.35
2022-09-23T10:36:19.464Z,58.26
2022-09-23T10:38:49.208Z,54.62
2022-09-23T10:41:27.298Z,57.72
2022-09-23T10:44:06.795Z,56.17
2022-09-23T10:46:37.177Z,54.52
2022-09-23T10:49:40.572Z,56.25
2022-09-23T10:52:29.264Z,55.05
2022-09-23T10:55:07.301Z,55.32
2022-09-23T10:57:47.008Z,53.61
2022-09-23T11:00:28.826Z,53.80
2022-09-23T11:03:33.576Z,53.45
2022-09-23T11:06:12.984Z,52.84
2022-09-23T11:08:54.303Z,54.46
2022-09-23T11:11:31.719Z,52.72
2022-09-23T11:14:15.769Z,52.62
2022-09-23T11:16:56.959Z,53.29
2022-09-23T11:19:45.697Z,51.67
2022-09-23T11:22:27.110Z,52.01
2022-09-23T11:25:13.190Z,51.40
2022-09-23T11:27:54.924Z,48.33
2022-09-23T11:30:21.551Z,47.97
2022-09-23T11:33:16.073Z,48.96
2022-09-23T11:35:48.630Z,49.91
2022-09-23T11:38:20.016Z,51.03
2022-09-23T11:40:49.457Z,47.05
2022-09-23T11:43:21.261Z,49.54
2022-09-23T11:45:53.397Z,50.87
2022-09-23T11:48:28.919Z,50.46
2022-09-23T11:50:59.626Z,48.88
2022-09-23T11:53:37.792Z,47.48
2022-09-23T11:56:10.479Z,46.95
2022-09-23T11:58:48.420Z,47.91
2022-09-23T12:01:35.155Z,48.44
2022-09-23T12:04:19.207Z,48.01
2022-09-23T12:06:51.186Z,49.19
2022-09-23T12:09:41.100Z,47.73
2022-09-23T12:12:18.605Z,45.64
2022-09-23T12:14:57.632Z,45.86
2022-09-23T12:17:51.311Z,49.85
2022-09-23T12:20:39.675Z,44.31
2022-09-23T12:23:19.183Z,47.21
2022-09-23T12:25:50.638Z,45.88
2022-09-23T12:28:20.593Z,48.83
2022-09-23T12:30:48.427Z,48.15
2022-09-23T12:33:21.715Z,50.71
2022-09-23T12:35:50.081Z,50.06
2022-09-23T12:38:22.438Z,50.90
2022-09-23T12:40:49.264Z,50.94
2022-09-23T12:43:18.173Z,51.17
2022-09-23T12:45:44.891Z,51.21
2022-09-23T12:48:43.916Z,54.24
2022-09-23T12:51:17.899Z,51.79
2022-09-23T12:54:15.213Z,55.33
2022-09-23T12:56:59.150Z,54.15
2022-09-23T12:59:27.696Z,51.89
2022-09-23T13:01:55.047Z,52.38
2022-09-23T13:04:43.166Z,52.96
2022-09-23T13:07:16.035Z,53.54
2022-09-23T13:09:48.184Z,53.64
2022-09-23T13:12:19.491Z,55.00
2022-09-23T13:14:48.237Z,54.61
2022-09-23T13:17:25.737Z,53.63
2022-09-23T13:20:02.636Z,53.74
2022-09-23T13:23:03.525Z,53.75
2022-09-23T13:25:32.877Z,53.43
2022-09-23T13:28:02.030Z,50.59
2022-09-23T13:30:28.655Z,49.48
2022-09-23T13:33:05.081Z,51.70
2022-09-23T13:35:35.774Z,51.87
2022-09-23T13:38:11.241Z,51.90
2022-09-23T13:40:39.425Z,50.61
2022-09-23T13:43:12.241Z,51.52
2022-09-23T13:45:41.615Z,51.79
2022-09-23T13:48:12.294Z,51.92
2022-09-23T13:50:39.767Z,49.00
2022-09-23T13:53:11.300Z,50.95
2022-09-23T13:55:39.321Z,50.33
2022-09-23T13:58:15.019Z,49.41
2022-09-23T14:00:41.560Z,52.67
2022-09-23T14:03:23.064Z,52.28
2022-09-23T14:05:50.768Z,51.00
2022-09-23T14:08:18.943Z,53.36
2022-09-23T14:10:46.561Z,52.85
2022-09-23T14:13:21.337Z,55.28
2022-09-23T14:15:54.160Z,53.39
2022-09-23T14:18:30.613Z,52.18
2022-09-23T14:20:57.103Z,49.40
2022-09-23T14:23:24.892Z,49.96
2022-09-23T14:25:53.337Z,50.69
2022-09-23T14:28:21.765Z,51.36
2022-09-23T14:30:50.699Z,51.18
2022-09-23T14:33:18.014Z,51.24
2022-09-23T14:35:47.217Z,52.71
2022-09-23T14:38:21.844Z,49.06
2022-09-23T14:40:54.339Z,50.97
2022-09-23T14:43:24.483Z,52.40
2022-09-23T14:45:53.296Z,49.22
2022-09-23T14:48:24.263Z,49.16
2022-09-23T14:50:54.569Z,52.79
2022-09-23T14:53:39.493Z,53.29
2022-09-23T14:56:25.367Z,54.16
2022-09-23T14:58:53.966Z,51.78
2022-09-23T15:01:26.504Z,51.22
2022-09-23T15:03:53.170Z,50.69
2022-09-23T15:06:22.043Z,50.99
2022-09-23T15:08:49.259Z,53.20
2022-09-23T15:11:15.761Z,53.46
2022-09-23T15:13:48.661Z,53.67
2022-09-23T15:16:16.263Z,53.03
2022-09-23T15:18:45.497Z,54.11
2022-09-23T15:21:15.723Z,53.83
2022-09-23T15:23:45.098Z,52.92
2022-09-23T15:26:14.196Z,52.97
2022-09-23T15:28:41.006Z,56.14
2022-09-23T15:31:11.234Z,55.79
2022-09-23T15:33:37.874Z,54.33
2022-09-23T15:36:04.620Z,54.14
2022-09-23T15:38:31.271Z,54.92
2022-09-23T15:40:57.881Z,55.07
2022-09-23T15:43:25.538Z,58.03
2022-09-23T15:45:54.563Z,55.37
2022-09-23T15:48:25.415Z,57.83
2022-09-23T15:50:53.444Z,57.69
2022-09-23T15:53:22.352Z,58.87
2022-09-23T15:55:49.813Z,56.98
2022-09-23T15:58:16.350Z,58.35
2022-09-23T16:00:43.127Z,59.24
2022-09-23T16:03:13.348Z,60.42
2022-09-23T16:05:44.074Z,60.55
2022-09-23T16:08:10.676Z,61.23
2022-09-23T16:10:37.797Z,63.87
2022-09-23T16:13:07.003Z,64.72
2022-09-23T16:15:34.029Z,65.72
2022-09-23T16:18:01.161Z,66.28
2022-09-23T16:20:29.609Z,67.36
2022-09-23T16:23:00.861Z,68.12
2022-09-23T16:25:29.683Z,68.49
2022-09-23T16:27:56.795Z,68.89
2022-09-23T16:30:23.648Z,69.61
2022-09-23T16:32:50.188Z,69.94
2022-09-23T16:35:16.762Z,71.99
2022-09-23T16:37:43.330Z,72.57
2022-09-23T16:40:11.387Z,74.19
2022-09-23T16:42:37.922Z,76.25
2022-09-23T16:45:05.385Z,76.67
2022-09-23T16:47:31.926Z,76.77
2022-09-23T16:49:58.475Z,76.29
2022-09-23T16:52:25.064Z,76.27
2022-09-23T16:54:51.656Z,77.77
2022-09-23T16:57:19.583Z,78.04
2022-09-23T16:59:46.128Z,77.99
2022-09-23T17:02:12.772Z,78.45
2022-09-23T17:04:39.427Z,79.18
2022-09-23T17:07:06.039Z,79.47
2022-09-23T17:09:32.606Z,79.70
2022-09-23T17:12:09.099Z,80.16
2022-09-23T17:14:37.398Z,80.94
2022-09-23T17:17:04.170Z,81.52
2022-09-23T17:19:30.913Z,81.68
2022-09-23T17:21:57.483Z,82.71
2022-09-23T17:24:24.070Z,82.99
2022-09-23T17:26:53.107Z,83.63
2022-09-23T17:29:20.175Z,83.98
2022-09-23T17:34:17.262Z,84.87
2022-09-23T17:36:43.936Z,85.56
2022-09-23T17:39:10.937Z,86.34
2022-09-23T17:41:37.433Z,86.21
2022-09-23T17:44:03.966Z,85.84
2022-09-23T17:46:30.879Z,85.84
2022-09-23T17:48:57.792Z,86.84
2022-09-23T17:51:25.773Z,88.67
2022-09-23T17:53:52.439Z,88.73
2022-09-23T17:56:20.920Z,88.35
2022-09-23T17:58:48.954Z,88.36
2022-09-23T18:01:18.038Z,88.76
2022-09-23T18:03:44.769Z,89.06
2022-09-23T18:06:13.000Z,89.35
2022-09-23T18:08:42.681Z,89.98
2022-09-23T18:11:14.261Z,90.04
2022-09-23T18:13:40.830Z,90.11
2022-09-23T18:16:07.719Z,90.01
2022-09-23T18:18:34.222Z,89.34
2022-09-23T18:21:00.991Z,89.16
2022-09-23T18:23:27.506Z,89.16
2022-09-23T18:25:55.981Z,88.93
2022-09-23T18:28:22.517Z,88.95
2022-09-23T18:30:53.165Z,89.34
2022-09-23T18:33:19.758Z,89.22
2022-09-23T18:35:46.273Z,89.11
2022-09-23T18:38:12.777Z,89.22
2022-09-23T18:40:39.305Z,88.89
2022-09-23T18:43:07.137Z,89.01
2022-09-23T18:45:33.723Z,89.55
2022-09-23T18:48:00.378Z,89.25
2022-09-23T18:50:26.930Z,89.53
2022-09-23T18:52:53.417Z,89.66
2022-09-23T18:55:19.889Z,90.15
2022-09-23T18:57:46.445Z,89.74
2022-09-23T19:00:14.670Z,90.44
2022-09-23T19:02:41.163Z,90.63
2022-09-23T19:05:08.185Z,91.41
2022-09-23T19:07:34.685Z,92.23
2022-09-23T19:10:01.198Z,92.00
2022-09-23T19:12:27.696Z,91.64
2022-09-23T19:14:54.177Z,91.82
2022-09-23T19:17:21.996Z,92.29
2022-09-23T19:19:48.485Z,92.31
2022-09-23T19:22:14.979Z,92.27
2022-09-23T19:24:41.465Z,91.87
2022-09-23T19:27:07.950Z,92.28
2022-09-23T19:29:34.455Z,92.75
2022-09-23T19:32:01.464Z,93.52
2022-09-23T19:34:29.418Z,93.48
2022-09-23T19:36:57.233Z,93.03
2022-09-23T19:39:25.510Z,93.05
2022-09-23T19:41:53.301Z,92.72
2022-09-23T19:44:19.836Z,93.00
2022-09-23T19:46:46.667Z,92.99
2022-09-23T19:49:13.592Z,93.11
2022-09-23T19:51:41.710Z,92.98
2022-09-23T19:54:08.687Z,92.74
2022-09-23T19:56:36.128Z,92.42
2022-09-23T19:59:03.177Z,92.63
2022-09-23T20:01:30.893Z,92.92
2022-09-23T20:03:57.696Z,93.29
2022-09-23T20:06:24.214Z,93.51
2022-09-23T20:08:52.061Z,93.92
2022-09-23T20:11:23.699Z,93.79
2022-09-23T20:13:55.868Z,94.11
2022-09-23T20:16:22.374Z,93.41
2022-09-23T20:18:52.016Z,93.14
2022-09-23T20:21:18.507Z,93.18
2022-09-23T20:23:45.035Z,92.81
2022-09-23T20:26:12.890Z,92.41
2022-09-23T20:28:39.391Z,92.17
2022-09-23T20:31:05.916Z,92.47
2022-09-23T20:33:32.454Z,92.52
2022-09-23T20:35:58.960Z,93.11
2022-09-23T20:38:25.435Z,93.89
2022-09-23T20:40:54.791Z,93.52
2022-09-23T20:43:23.050Z,93.51
2022-09-23T20:45:50.070Z,93.75
2022-09-23T20:48:16.602Z,93.59
2022-09-23T20:50:43.118Z,93.08
2022-09-23T20:53:09.597Z,92.54
2022-09-23T20:55:36.107Z,93.01
2022-09-23T20:58:02.587Z,93.03
2022-09-23T21:00:30.509Z,93.13
2022-09-23T21:02:57.021Z,93.05
2022-09-23T21:05:23.660Z,92.96
2022-09-23T21:07:50.149Z,93.01
2022-09-23T21:10:16.641Z,92.98
2022-09-23T21:12:43.118Z,92.71
2022-09-23T21:15:10.273Z,92.70
2022-09-23T21:17:38.086Z,92.37
2022-09-23T21:20:05.482Z,91.79
2022-09-23T21:22:31.960Z,91.63
2022-09-23T21:27:44.884Z,91.27
2022-09-23T21:30:12.244Z,90.81
2022-09-23T21:32:40.094Z,91.07
2022-09-23T21:35:07.035Z,90.94
2022-09-23T21:37:33.504Z,90.61
2022-09-23T21:40:00.280Z,90.68
2022-09-23T21:42:26.782Z,90.93
2022-09-23T21:44:53.286Z,91.13
2022-09-23T21:47:19.793Z,91.51
2022-09-23T21:49:50.756Z,91.69
2022-09-23T21:52:17.576Z,91.48
2022-09-23T21:54:44.100Z,91.17
2022-09-23T21:57:10.581Z,90.99
2022-09-23T21:59:37.089Z,91.11
2022-09-23T22:02:03.585Z,91.24
2022-09-23T22:04:30.176Z,91.12
2022-09-23T22:06:58.275Z,91.36
2022-09-23T22:09:24.816Z,91.42
2022-09-23T22:11:51.358Z,91.95
2022-09-23T22:14:19.437Z,92.07
2022-09-23T22:16:45.982Z,91.64
2022-09-23T22:19:13.504Z,91.55
2022-09-23T22:21:41.581Z,91.18
2022-09-23T22:24:11.336Z,91.19
2022-09-23T22:26:39.906Z,91.24
2022-09-23T22:29:08.470Z,91.22
2022-09-23T22:31:35.185Z,91.77
2022-09-23T22:34:01.748Z,91.83
2022-09-23T22:36:28.249Z,91.70
2022-09-23T22:38:58.410Z,91.94
2022-09-23T22:41:27.085Z,91.75
2022-09-23T22:43:53.583Z,91.63
2022-09-23T22:46:21.335Z,91.83
2022-09-23T22:48:48.757Z,91.67
2022-09-23T22:51:15.250Z,91.52
2022-09-23T22:53:41.718Z,91.67
2022-09-23T22:56:08.274Z,91.38
2022-09-23T22:58:36.147Z,91.46
2022-09-23T23:01:02.712Z,91.32
2022-09-23T23:03:29.248Z,91.14
2022-09-23T23:06:00.182Z,91.61
2022-09-23T23:08:26.998Z,91.65
2022-09-23T23:10:53.601Z,92.44
2022-09-23T23:13:20.148Z,92.40
2022-09-23T23:15:48.259Z,92.56
2022-09-23T23:18:15.214Z,92.93
2022-09-23T23:20:41.728Z,92.95
2022-09-23T23:23:08.246Z,93.07
2022-09-23T23:25:34.738Z,92.95
2022-09-23T23:28:01.567Z,93.12
2022-09-23T23:30:28.092Z,93.20
2022-09-23T23:32:55.928Z,93.13
2022-09-23T23:35:22.448Z,93.37
2022-09-23T23:37:48.955Z,93.62
2022-09-23T23:40:15.672Z,93.69
2022-09-23T23:42:42.192Z,93.83
2022-09-23T23:45:09.344Z,93.74
2022-09-23T23:47:35.820Z,93.82
2022-09-23T23:50:04.009Z,93.82
2022-09-23T23:52:30.490Z,93.07
2022-09-23T23:54:56.982Z,93.15
2022-09-23T23:57:23.502Z,93.31
2022-09-23T23:59:50.020Z,93.44
